createdAt,value
2023-03-06T00:01:57.004Z,18.57
2023-03-06T00:04:19.180Z,17.37
2023-03-06T00:06:40.591Z,18.53
2023-03-06T00:09:02.025Z,17.83
2023-03-06T00:11:23.640Z,18.20
2023-03-06T00:13:46.632Z,16.83
2023-03-06T00:16:08.012Z,18.43
2023-03-06T00:18:29.062Z,16.30
2023-03-06T00:20:50.199Z,16.97
2023-03-06T00:23:12.009Z,17.60
2023-03-06T00:25:36.725Z,18.10
2023-03-06T00:27:58.149Z,17.30
2023-03-06T00:30:22.419Z,18.10
2023-03-06T00:32:44.312Z,17.73
2023-03-06T00:35:05.813Z,18.07
2023-03-06T00:37:26.936Z,18.07
2023-03-06T00:39:49.452Z,17.93
2023-03-06T00:42:10.255Z,16.80
2023-03-06T00:44:31.570Z,17.20
2023-03-06T00:46:54.132Z,18.07
2023-03-06T00:49:15.472Z,16.80
2023-03-06T00:51:36.637Z,16.83
2023-03-06T00:53:57.962Z,18.37
2023-03-06T00:56:20.037Z,17.10
2023-03-06T00:58:41.277Z,17.23
2023-03-06T01:01:02.865Z,18.00
2023-03-06T01:03:25.523Z,17.47
2023-03-06T01:05:46.951Z,17.67
2023-03-06T01:08:08.809Z,17.53
2023-03-06T01:10:30.274Z,18.00
2023-03-06T01:12:51.628Z,17.33
2023-03-06T01:15:13.852Z,16.83
2023-03-06T01:17:35.154Z,16.70
2023-03-06T01:19:58.070Z,17.93
2023-03-06T01:22:19.240Z,18.27
2023-03-06T01:24:40.591Z,17.00
2023-03-06T01:27:01.721Z,16.87
2023-03-06T01:29:23.067Z,17.43
2023-03-06T01:31:44.435Z,16.73
2023-03-06T01:34:05.753Z,16.43
2023-03-06T01:36:28.662Z,17.53
2023-03-06T01:38:49.995Z,18.20
2023-03-06T01:41:15.569Z,17.30
2023-03-06T01:43:37.808Z,16.80
2023-03-06T01:46:22.868Z,17.83
2023-03-06T01:48:44.725Z,17.00
2023-03-06T01:51:06.382Z,18.40
2023-03-06T01:53:29.363Z,18.17
2023-03-06T01:55:50.523Z,19.53
2023-03-06T01:58:13.187Z,19.90
2023-03-06T02:00:34.559Z,19.27
2023-03-06T02:02:56.576Z,18.70
2023-03-06T02:05:17.522Z,17.97
2023-03-06T02:07:39.202Z,16.77
2023-03-06T02:10:01.822Z,16.80
2023-03-06T02:12:23.289Z,18.57
2023-03-06T02:14:44.668Z,18.30
2023-03-06T02:17:05.798Z,18.27
2023-03-06T02:19:33.475Z,18.10
2023-03-06T02:21:54.557Z,18.70
2023-03-06T02:24:27.783Z,19.33
2023-03-06T02:26:50.940Z,19.10
2023-03-06T02:29:12.472Z,20.33
2023-03-06T02:31:35.544Z,18.93
2023-03-06T02:34:04.359Z,18.93
2023-03-06T02:36:25.834Z,19.20
2023-03-06T02:38:48.550Z,20.63
2023-03-06T02:41:10.294Z,19.77
2023-03-06T02:43:34.590Z,20.07
2023-03-06T02:45:55.917Z,20.00
2023-03-06T02:48:17.929Z,19.80
2023-03-06T02:50:39.163Z,20.00
2023-03-06T02:53:00.726Z,18.37
2023-03-06T02:55:22.058Z,19.30
2023-03-06T02:57:43.543Z,19.07
2023-03-06T03:00:07.156Z,20.30
2023-03-06T03:02:28.521Z,19.67
2023-03-06T03:04:49.915Z,18.17
2023-03-06T03:07:11.087Z,19.03
2023-03-06T03:09:36.747Z,18.20
2023-03-06T03:11:57.717Z,19.13
2023-03-06T03:14:18.915Z,19.93
2023-03-06T03:16:41.550Z,19.00
2023-03-06T03:19:02.758Z,18.50
2023-03-06T03:21:24.004Z,19.67
2023-03-06T03:23:45.620Z,19.83
2023-03-06T03:26:07.482Z,19.47
2023-03-06T03:28:28.716Z,19.43
2023-03-06T03:30:50.151Z,20.67
2023-03-06T03:33:13.161Z,18.93
2023-03-06T03:35:34.691Z,19.87
2023-03-06T03:37:55.757Z,20.03
2023-03-06T03:40:16.983Z,19.23
2023-03-06T03:42:38.338Z,19.73
2023-03-06T03:44:59.342Z,18.90
2023-03-06T03:47:20.441Z,19.03
2023-03-06T03:49:42.992Z,18.57
2023-03-06T03:52:04.096Z,19.50
2023-03-06T03:54:25.430Z,20.57
2023-03-06T03:56:46.402Z,19.53
2023-03-06T03:59:07.955Z,19.47
2023-03-06T04:01:29.363Z,19.73
2023-03-06T04:03:50.327Z,19.00
2023-03-06T04:06:13.059Z,19.13
2023-03-06T04:08:34.528Z,18.67
2023-03-06T04:10:56.058Z,19.03
2023-03-06T04:13:17.979Z,19.23
2023-03-06T04:15:39.440Z,18.13
2023-03-06T04:18:00.686Z,18.33
2023-03-06T04:20:21.982Z,18.90
2023-03-06T04:22:44.670Z,19.03
2023-03-06T04:25:06.026Z,19.97
2023-03-06T04:27:27.620Z,19.63
2023-03-06T04:29:48.816Z,19.07
2023-03-06T04:32:10.320Z,18.47
2023-03-06T04:34:31.643Z,18.43
2023-03-06T04:36:53.009Z,19.73
2023-03-06T04:39:15.978Z,17.73
2023-03-06T04:41:36.935Z,18.80
2023-03-06T04:43:58.534Z,19.27
2023-03-06T04:46:19.848Z,20.97
2023-03-06T04:48:41.103Z,20.23
2023-03-06T04:51:02.493Z,20.57
2023-03-06T04:53:23.757Z,20.33
2023-03-06T04:55:46.464Z,20.60
2023-03-06T04:58:07.393Z,20.17
2023-03-06T05:00:31.429Z,19.30
2023-03-06T05:02:52.859Z,19.73
2023-03-06T05:05:14.411Z,20.43
2023-03-06T05:07:35.831Z,18.77
2023-03-06T05:09:57.273Z,20.60
2023-03-06T05:12:19.602Z,20.93
2023-03-06T05:14:40.708Z,20.27
2023-03-06T05:17:02.096Z,20.23
2023-03-06T05:19:23.298Z,20.50
2023-03-06T05:21:44.719Z,19.70
2023-03-06T05:24:06.257Z,18.93
2023-03-06T05:26:27.242Z,21.13
2023-03-06T05:28:49.966Z,23.93
2023-03-06T05:31:11.233Z,23.43
2023-03-06T05:33:32.766Z,20.73
2023-03-06T05:35:54.185Z,21.43
2023-03-06T05:38:15.417Z,19.83
2023-03-06T05:40:36.621Z,20.73
2023-03-06T05:42:57.849Z,20.27
2023-03-06T05:45:20.769Z,21.73
2023-03-06T05:47:41.966Z,20.07
2023-03-06T05:50:03.275Z,20.07
2023-03-06T05:52:24.730Z,19.70
2023-03-06T05:54:50.372Z,21.30
2023-03-06T05:57:11.998Z,20.70
2023-03-06T05:59:33.699Z,20.20
2023-03-06T06:01:56.655Z,20.77
2023-03-06T06:04:18.058Z,19.60
2023-03-06T06:06:39.386Z,18.97
2023-03-06T06:09:00.648Z,20.13
2023-03-06T06:11:21.847Z,19.20
2023-03-06T06:13:42.904Z,19.40
2023-03-06T06:16:07.514Z,20.40
2023-03-06T06:18:30.228Z,20.80
2023-03-06T06:20:51.488Z,19.50
2023-03-06T06:23:13.172Z,19.90
2023-03-06T06:25:34.690Z,19.30
2023-03-06T06:27:56.169Z,18.83
2023-03-06T06:30:17.930Z,19.07
2023-03-06T06:32:39.378Z,20.33
2023-03-06T06:35:02.100Z,20.70
2023-03-06T06:37:23.132Z,19.47
2023-03-06T06:39:44.821Z,19.10
2023-03-06T06:42:28.887Z,19.93
2023-03-06T06:44:47.671Z,19.93
2023-03-06T06:47:22.255Z,19.80
2023-03-06T06:49:45.076Z,19.37
2023-03-06T06:52:08.354Z,18.83
2023-03-06T06:54:29.907Z,19.57
2023-03-06T06:56:51.251Z,19.53
2023-03-06T06:59:17.218Z,18.47
2023-03-06T07:01:38.364Z,19.33
2023-03-06T07:03:59.777Z,19.77
2023-03-06T07:06:21.142Z,18.20
2023-03-06T07:08:43.922Z,18.70
2023-03-06T07:11:07.217Z,18.47
2023-03-06T07:13:28.253Z,18.57
2023-03-06T07:15:49.688Z,17.57
2023-03-06T07:18:11.094Z,16.93
2023-03-06T07:20:32.749Z,17.37
2023-03-06T07:22:53.877Z,17.73
2023-03-06T07:25:17.208Z,17.63
2023-03-06T07:27:38.201Z,17.67
2023-03-06T07:29:59.519Z,18.10
2023-03-06T07:32:20.961Z,17.47
2023-03-06T07:34:43.068Z,18.30
2023-03-06T07:37:04.654Z,19.27
2023-03-06T07:39:25.645Z,19.77
2023-03-06T07:41:48.264Z,18.17
2023-03-06T07:44:09.297Z,17.90
2023-03-06T07:46:30.616Z,16.93
2023-03-06T07:48:52.075Z,18.03
2023-03-06T07:51:14.732Z,17.23
2023-03-06T07:53:36.077Z,17.67
2023-03-06T07:55:57.189Z,18.60
2023-03-06T07:58:19.702Z,17.97
2023-03-06T08:00:40.967Z,18.80
2023-03-06T08:03:02.400Z,16.20
2023-03-06T08:05:23.740Z,17.37
2023-03-06T08:07:45.091Z,15.87
2023-03-06T08:10:06.535Z,15.43
2023-03-06T08:12:27.668Z,16.03
2023-03-06T08:14:50.245Z,16.00
2023-03-06T08:17:11.217Z,16.10
2023-03-06T08:19:33.013Z,16.13
2023-03-06T08:21:54.044Z,14.77
2023-03-06T08:24:16.734Z,14.87
2023-03-06T08:26:37.658Z,15.63
2023-03-06T08:28:59.867Z,15.77
2023-03-06T08:31:30.181Z,16.13
2023-03-06T08:33:51.665Z,14.80
2023-03-06T08:36:13.555Z,15.10
2023-03-06T08:38:34.922Z,15.23
2023-03-06T08:40:56.353Z,16.17
2023-03-06T08:43:17.629Z,16.17
2023-03-06T08:45:39.682Z,15.93
2023-03-06T08:48:02.039Z,14.67
2023-03-06T08:50:23.344Z,14.87
2023-03-06T08:52:44.558Z,14.63
2023-03-06T08:55:06.413Z,13.83
2023-03-06T08:57:27.483Z,14.00
2023-03-06T08:59:48.740Z,12.73
2023-03-06T09:02:12.996Z,14.40
2023-03-06T09:04:35.905Z,14.87
2023-03-06T09:06:57.222Z,14.30
2023-03-06T09:09:18.492Z,13.73
2023-03-06T09:11:39.670Z,11.37
2023-03-06T09:14:00.986Z,11.73
2023-03-06T09:16:22.336Z,11.33
2023-03-06T09:18:43.799Z,12.53
2023-03-06T09:21:06.889Z,12.60
2023-03-06T09:23:27.835Z,10.10
2023-03-06T09:25:52.558Z,12.67
2023-03-06T09:28:13.503Z,12.00
2023-03-06T09:30:34.703Z,11.80
2023-03-06T09:32:56.011Z,12.07
2023-03-06T09:35:18.730Z,11.77
2023-03-06T09:37:41.785Z,11.37
2023-03-06T09:40:04.788Z,12.50
2023-03-06T09:42:26.442Z,9.77
2023-03-06T09:44:51.350Z,10.27
2023-03-06T09:47:19.756Z,11.87
2023-03-06T09:49:45.850Z,11.17
2023-03-06T09:52:13.601Z,10.10
2023-03-06T09:54:42.031Z,9.90
2023-03-06T09:57:03.682Z,9.30
2023-03-06T09:59:26.137Z,9.80
2023-03-06T10:01:49.160Z,9.10
2023-03-06T10:04:12.631Z,9.83
2023-03-06T10:06:35.494Z,8.97
2023-03-06T10:08:58.799Z,10.53
2023-03-06T10:11:25.036Z,8.40
2023-03-06T10:13:46.857Z,7.83
2023-03-06T10:16:13.474Z,8.67
2023-03-06T10:18:38.408Z,6.77
2023-03-06T10:21:13.418Z,7.40
2023-03-06T10:23:44.303Z,6.90
2023-03-06T10:26:10.953Z,8.30
2023-03-06T10:28:36.808Z,8.60
2023-03-06T10:31:01.154Z,8.87
2023-03-06T10:33:23.560Z,7.60
2023-03-06T10:35:47.546Z,8.27
2023-03-06T10:38:14.168Z,7.80
2023-03-06T10:40:41.885Z,8.00
2023-03-06T10:43:11.356Z,7.30
2023-03-06T10:45:48.496Z,7.67
2023-03-06T10:48:12.139Z,7.20
2023-03-06T10:50:34.446Z,10.80
2023-03-06T10:53:00.230Z,10.50
2023-03-06T10:55:26.691Z,8.97
2023-03-06T10:57:47.901Z,7.73
2023-03-06T11:00:24.475Z,9.00
2023-03-06T11:02:47.006Z,7.53
2023-03-06T11:05:19.030Z,7.90
2023-03-06T11:07:54.319Z,8.00
2023-03-06T11:10:19.048Z,8.33
2023-03-06T11:12:41.148Z,8.30
2023-03-06T11:15:09.718Z,8.73
2023-03-06T11:17:32.107Z,9.00
2023-03-06T11:20:07.861Z,10.50
2023-03-06T11:22:29.036Z,9.03
2023-03-06T11:24:51.532Z,9.27
2023-03-06T11:27:22.127Z,9.30
2023-03-06T11:29:44.623Z,9.10
2023-03-06T11:32:09.822Z,8.23
2023-03-06T11:34:39.624Z,8.97
2023-03-06T11:37:07.392Z,9.40
2023-03-06T11:39:32.857Z,9.50
2023-03-06T11:42:00.453Z,9.33
2023-03-06T11:44:26.726Z,10.03
2023-03-06T11:46:49.594Z,10.60
2023-03-06T11:49:17.974Z,10.30
2023-03-06T11:51:41.238Z,10.37
2023-03-06T11:54:04.055Z,10.23
2023-03-06T11:56:31.811Z,9.80
2023-03-06T11:58:59.084Z,10.00
2023-03-06T12:01:24.335Z,10.30
2023-03-06T12:04:00.389Z,10.17
2023-03-06T12:06:27.597Z,10.83
2023-03-06T12:08:53.211Z,10.87
2023-03-06T12:11:20.330Z,9.80
2023-03-06T12:14:01.009Z,10.17
2023-03-06T12:16:39.951Z,9.93
2023-03-06T12:19:08.079Z,9.33
2023-03-06T12:21:34.811Z,9.67
2023-03-06T12:24:00.115Z,8.27
2023-03-06T12:26:31.697Z,7.67
2023-03-06T12:29:01.871Z,7.03
2023-03-06T12:31:41.230Z,7.30
2023-03-06T12:34:06.520Z,7.17
2023-03-06T12:36:34.279Z,6.97
2023-03-06T12:39:01.190Z,7.37
2023-03-06T12:41:25.407Z,6.90
2023-03-06T12:44:03.016Z,7.00
2023-03-06T12:46:25.222Z,7.10
2023-03-06T12:48:48.401Z,6.83
2023-03-06T12:51:12.090Z,7.27
2023-03-06T12:53:35.150Z,8.23
2023-03-06T12:55:56.891Z,7.00
2023-03-06T12:58:45.775Z,7.73
2023-03-06T13:01:11.072Z,6.73
2023-03-06T13:03:36.688Z,6.93
2023-03-06T13:06:05.346Z,7.07
2023-03-06T13:08:45.870Z,6.93
2023-03-06T13:11:17.511Z,6.57
2023-03-06T13:13:44.015Z,6.83
2023-03-06T13:16:10.829Z,7.33
2023-03-06T13:18:56.160Z,7.60
2023-03-06T13:21:38.027Z,6.47
2023-03-06T13:24:04.921Z,6.70
2023-03-06T13:26:44.951Z,7.10
2023-03-06T13:29:25.890Z,7.10
2023-03-06T13:32:07.780Z,7.30
2023-03-06T13:34:34.898Z,6.93
2023-03-06T13:37:16.661Z,6.73
2023-03-06T13:39:52.690Z,8.87
2023-03-06T13:42:26.754Z,6.87
2023-03-06T13:44:49.651Z,7.07
2023-03-06T13:47:22.420Z,7.07
2023-03-06T13:49:45.611Z,7.27
2023-03-06T13:52:08.016Z,7.07
2023-03-06T13:54:36.614Z,7.33
2023-03-06T13:57:22.228Z,7.70
2023-03-06T14:00:09.231Z,6.93
2023-03-06T14:02:40.394Z,6.77
2023-03-06T14:05:02.167Z,6.30
2023-03-06T14:07:25.213Z,6.40
2023-03-06T14:09:47.964Z,7.60
2023-03-06T14:12:16.853Z,6.97
2023-03-06T14:14:41.136Z,7.57
2023-03-06T14:17:05.144Z,7.70
2023-03-06T14:19:28.757Z,7.67
2023-03-06T14:21:52.059Z,8.07
2023-03-06T14:24:15.931Z,7.57
2023-03-06T14:26:41.525Z,8.20
2023-03-06T14:29:03.732Z,7.73
2023-03-06T14:31:26.291Z,6.80
2023-03-06T14:33:51.208Z,7.67
2023-03-06T14:36:16.171Z,7.93
2023-03-06T14:38:38.891Z,7.47
2023-03-06T14:41:00.407Z,7.77
2023-03-06T14:43:23.176Z,8.27
2023-03-06T14:45:51.395Z,8.20
2023-03-06T14:48:15.596Z,6.93
2023-03-06T14:50:37.146Z,7.50
2023-03-06T14:53:00.430Z,7.40
2023-03-06T14:55:23.628Z,7.77
2023-03-06T14:57:44.726Z,7.03
2023-03-06T15:00:06.994Z,6.70
2023-03-06T15:02:29.132Z,6.03
2023-03-06T15:04:52.210Z,6.57
2023-03-06T15:07:15.544Z,6.37
2023-03-06T15:09:38.658Z,6.03
2023-03-06T15:12:00.936Z,6.70
2023-03-06T15:14:23.349Z,5.73
2023-03-06T15:16:44.716Z,7.07
2023-03-06T15:19:05.833Z,7.90
2023-03-06T15:21:28.635Z,7.90
2023-03-06T15:23:50.325Z,6.97
2023-03-06T15:26:23.676Z,7.37
2023-03-06T15:28:44.858Z,8.23
2023-03-06T15:31:21.216Z,6.50
2023-03-06T15:33:42.665Z,33.63
2023-03-06T15:36:04.911Z,6.87
2023-03-06T15:38:30.913Z,7.00
2023-03-06T15:40:55.230Z,7.23
2023-03-06T15:43:17.969Z,8.90
2023-03-06T15:45:39.528Z,8.17
2023-03-06T15:48:02.766Z,7.90
2023-03-06T15:50:25.170Z,8.40
2023-03-06T15:52:46.945Z,7.33
2023-03-06T15:55:08.358Z,7.10
2023-03-06T15:57:30.207Z,7.50
2023-03-06T15:59:52.831Z,7.60
2023-03-06T16:02:17.785Z,7.63
2023-03-06T16:04:38.846Z,7.50
2023-03-06T16:07:00.125Z,7.10
2023-03-06T16:09:22.667Z,7.20
2023-03-06T16:11:45.023Z,7.10
2023-03-06T16:14:06.263Z,7.53
2023-03-06T16:16:31.238Z,7.50
2023-03-06T16:18:52.146Z,7.63
2023-03-06T16:21:13.430Z,7.63
2023-03-06T16:23:38.690Z,7.60
2023-03-06T16:26:00.045Z,7.53
2023-03-06T16:28:21.286Z,8.47
2023-03-06T16:30:43.282Z,8.13
2023-03-06T16:33:05.941Z,7.20
2023-03-06T16:35:27.577Z,8.00
2023-03-06T16:37:48.844Z,7.50
2023-03-06T16:40:16.170Z,8.33
2023-03-06T16:42:37.537Z,8.67
2023-03-06T16:44:58.850Z,8.23
2023-03-06T16:47:20.331Z,8.70
2023-03-06T16:49:43.216Z,8.83
2023-03-06T16:52:05.050Z,10.00
2023-03-06T16:54:26.216Z,9.20
2023-03-06T16:56:47.838Z,9.07
2023-03-06T16:59:09.093Z,8.93
2023-03-06T17:01:30.151Z,9.13
2023-03-06T17:03:51.349Z,9.30
2023-03-06T17:06:18.136Z,8.63
2023-03-06T17:08:39.488Z,9.53
2023-03-06T17:11:00.835Z,9.40
2023-03-06T17:13:22.311Z,9.40
2023-03-06T17:15:56.568Z,10.03
2023-03-06T17:18:17.900Z,9.83
2023-03-06T17:20:39.191Z,9.43
2023-03-06T17:23:01.956Z,9.67
2023-03-06T17:25:23.288Z,12.23
2023-03-06T17:27:44.804Z,9.77
2023-03-06T17:30:06.771Z,12.07
2023-03-06T17:32:28.136Z,10.43
2023-03-06T17:34:49.154Z,12.87
2023-03-06T17:37:10.624Z,14.40
2023-03-06T17:39:33.982Z,10.77
2023-03-06T17:41:54.976Z,10.80
2023-03-06T17:44:16.502Z,10.77
2023-03-06T17:46:37.734Z,11.60
2023-03-06T17:48:58.985Z,10.07
2023-03-06T17:51:20.314Z,10.63
2023-03-06T17:53:41.467Z,11.87
2023-03-06T17:56:05.710Z,10.57
2023-03-06T17:58:27.098Z,11.27
2023-03-06T18:00:48.341Z,11.30
2023-03-06T18:03:10.116Z,12.70
2023-03-06T18:05:31.482Z,14.50
2023-03-06T18:07:52.806Z,13.27
2023-03-06T18:10:14.123Z,13.63
2023-03-06T18:12:36.920Z,14.33
2023-03-06T18:14:57.844Z,14.13
2023-03-06T18:17:19.001Z,13.83
2023-03-06T18:19:41.413Z,12.20
2023-03-06T18:22:02.701Z,18.47
2023-03-06T18:24:24.213Z,24.17
2023-03-06T18:26:45.811Z,14.43
2023-03-06T18:29:08.181Z,14.67
2023-03-06T18:31:33.775Z,13.50
2023-03-06T18:33:56.039Z,13.03
2023-03-06T18:36:17.400Z,12.87
2023-03-06T18:38:40.051Z,12.63
2023-03-06T18:41:01.139Z,13.97
2023-03-06T18:43:22.313Z,12.60
2023-03-06T18:45:53.783Z,11.40
2023-03-06T18:48:15.505Z,11.73
2023-03-06T18:50:36.639Z,11.50
2023-03-06T18:52:57.919Z,11.60
2023-03-06T18:55:19.090Z,10.87
2023-03-06T18:57:40.884Z,13.07
2023-03-06T19:00:01.896Z,11.40
2023-03-06T19:02:24.310Z,12.47
2023-03-06T19:04:45.582Z,13.00
2023-03-06T19:07:07.205Z,12.13
2023-03-06T19:09:28.477Z,12.03
2023-03-06T19:11:49.829Z,13.63
2023-03-06T19:14:11.222Z,14.67
2023-03-06T19:16:32.644Z,12.80
2023-03-06T19:18:56.143Z,12.60
2023-03-06T19:21:18.780Z,14.27
2023-03-06T19:23:40.046Z,14.13
2023-03-06T19:26:01.603Z,11.60
2023-03-06T19:28:22.745Z,13.23
2023-03-06T19:30:44.423Z,12.33
2023-03-06T19:33:05.710Z,12.97
2023-03-06T19:35:28.548Z,12.37
2023-03-06T19:37:49.782Z,12.70
2023-03-06T19:40:11.757Z,12.40
2023-03-06T19:42:32.678Z,12.57
2023-03-06T19:44:53.988Z,13.37
2023-03-06T19:47:15.519Z,12.53
2023-03-06T19:49:38.095Z,13.03
2023-03-06T19:52:00.844Z,12.27
2023-03-06T19:54:24.678Z,11.57
2023-03-06T19:56:46.045Z,11.07
2023-03-06T19:59:07.138Z,13.63
2023-03-06T20:01:29.141Z,12.53
2023-03-06T20:03:51.106Z,12.93
2023-03-06T20:06:13.632Z,12.63
2023-03-06T20:08:36.276Z,12.30
2023-03-06T20:10:57.599Z,12.33
2023-03-06T20:13:18.884Z,12.33
2023-03-06T20:15:40.249Z,12.70
2023-03-06T20:18:01.428Z,11.73
2023-03-06T20:20:22.837Z,11.27
2023-03-06T20:22:44.265Z,11.37
2023-03-06T20:25:07.299Z,11.87
2023-03-06T20:27:28.602Z,12.03
2023-03-06T20:29:49.927Z,11.50
2023-03-06T20:32:11.387Z,13.33
2023-03-06T20:34:32.407Z,12.53
2023-03-06T20:36:53.646Z,13.27
2023-03-06T20:39:16.192Z,12.70
2023-03-06T20:41:38.776Z,11.77
2023-03-06T20:44:00.207Z,12.00
2023-03-06T20:46:22.390Z,12.43
2023-03-06T20:48:44.211Z,11.70
2023-03-06T20:51:06.535Z,11.63
2023-03-06T20:53:27.836Z,12.73
2023-03-06T20:55:50.167Z,12.13
2023-03-06T20:58:12.872Z,13.10
2023-03-06T21:00:34.329Z,12.20
2023-03-06T21:02:55.579Z,12.13
2023-03-06T21:05:16.738Z,13.30
2023-03-06T21:07:37.883Z,12.30
2023-03-06T21:09:59.078Z,13.50
2023-03-06T21:12:20.345Z,13.50
2023-03-06T21:14:43.057Z,12.33
2023-03-06T21:17:04.707Z,13.13
2023-03-06T21:19:25.867Z,12.27
2023-03-06T21:21:47.224Z,12.60
2023-03-06T21:24:09.050Z,11.97
2023-03-06T21:26:33.603Z,12.87
2023-03-06T21:28:54.729Z,12.43
2023-03-06T21:31:18.592Z,12.63
2023-03-06T21:33:40.336Z,13.13
2023-03-06T21:36:01.716Z,12.73
2023-03-06T21:38:23.218Z,12.80
2023-03-06T21:40:45.409Z,12.90
2023-03-06T21:43:06.831Z,13.80
2023-03-06T21:45:30.567Z,13.80
2023-03-06T21:47:53.533Z,13.30
2023-03-06T21:50:15.446Z,16.00
2023-03-06T21:52:36.650Z,13.33
2023-03-06T21:54:57.737Z,19.33
2023-03-06T21:57:18.880Z,16.53
2023-03-06T21:59:40.417Z,15.43
2023-03-06T22:02:01.745Z,23.40
2023-03-06T22:04:24.176Z,16.50
2023-03-06T22:06:45.566Z,13.90
2023-03-06T22:09:06.694Z,13.13
2023-03-06T22:11:30.546Z,17.13
2023-03-06T22:13:53.242Z,13.60
2023-03-06T22:16:14.781Z,15.03
2023-03-06T22:18:36.604Z,15.87
2023-03-06T22:20:59.472Z,15.87
2023-03-06T22:23:20.532Z,14.97
2023-03-06T22:25:41.874Z,13.37
2023-03-06T22:28:02.953Z,12.27
2023-03-06T22:30:24.331Z,12.53
2023-03-06T22:32:45.791Z,12.87
2023-03-06T22:35:07.666Z,13.33
2023-03-06T22:37:30.352Z,13.47
2023-03-06T22:39:51.292Z,13.20
2023-03-06T22:42:12.501Z,12.53
2023-03-06T22:44:33.841Z,12.13
2023-03-06T22:46:55.289Z,13.17
2023-03-06T22:49:16.867Z,12.70
2023-03-06T22:51:38.488Z,13.77
2023-03-06T22:54:00.922Z,12.87
2023-03-06T22:56:22.742Z,13.90
2023-03-06T22:58:44.882Z,12.93
2023-03-06T23:01:07.273Z,12.73
2023-03-06T23:03:28.424Z,12.60
2023-03-06T23:05:49.595Z,12.87
2023-03-06T23:08:11.004Z,13.33
2023-03-06T23:10:37.441Z,12.40
2023-03-06T23:12:58.371Z,11.70
2023-03-06T23:15:19.737Z,13.10
2023-03-06T23:17:41.187Z,12.03
2023-03-06T23:20:06.063Z,11.53
2023-03-06T23:22:27.037Z,11.77
2023-03-06T23:24:48.233Z,11.80
2023-03-06T23:27:10.750Z,11.43
2023-03-06T23:29:32.157Z,11.40
2023-03-06T23:31:53.176Z,10.67
2023-03-06T23:34:14.332Z,11.50
2023-03-06T23:36:36.369Z,11.10
2023-03-06T23:38:58.152Z,11.93
2023-03-06T23:41:20.412Z,11.10
2023-03-06T23:43:43.031Z,11.33
2023-03-06T23:46:04.987Z,11.20
2023-03-06T23:48:26.711Z,11.67
2023-03-06T23:50:48.040Z,12.00
2023-03-06T23:53:09.150Z,11.70
2023-03-06T23:55:30.498Z,11.07
2023-03-06T23:57:51.932Z,11.70
